createdAt,value
2018-05-26T00:01:25.351Z,99.90
2018-05-26T00:03:52.947Z,99.90
2018-05-26T00:06:21.382Z,99.90
2018-05-26T00:08:49.001Z,99.90
2018-05-26T00:11:16.794Z,99.90
2018-05-26T00:13:45.160Z,99.90
2018-05-26T00:16:12.873Z,99.90
2018-05-26T00:18:40.527Z,99.90
2018-05-26T00:21:09.105Z,99.90
2018-05-26T00:23:36.691Z,99.90
2018-05-26T00:26:04.267Z,99.90
2018-05-26T00:28:32.622Z,99.90
2018-05-26T00:31:00.198Z,99.90
2018-05-26T00:33:27.771Z,99.90
2018-05-26T00:35:55.382Z,99.90
2018-05-26T00:38:23.726Z,99.90
2018-05-26T00:40:51.301Z,99.90
2018-05-26T00:43:18.844Z,99.90
2018-05-26T00:45:46.404Z,99.90
2018-05-26T00:48:13.987Z,99.90
2018-05-26T00:50:41.543Z,99.90
2018-05-26T00:53:09.898Z,99.90
2018-05-26T00:55:37.483Z,99.90
2018-05-26T00:58:05.049Z,99.90
2018-05-26T01:00:32.625Z,99.90
2018-05-26T01:03:00.220Z,99.90
2018-05-26T01:05:28.578Z,99.90
2018-05-26T01:07:56.171Z,99.90
2018-05-26T01:10:23.766Z,99.90
2018-05-26T01:12:52.161Z,99.90
2018-05-26T01:15:19.724Z,99.90
2018-05-26T01:17:48.093Z,99.90
2018-05-26T01:20:16.448Z,99.90
2018-05-26T01:22:44.025Z,99.90
2018-05-26T01:25:11.568Z,99.90
2018-05-26T01:27:39.155Z,99.90
2018-05-26T01:30:06.735Z,99.90
2018-05-26T01:32:34.707Z,99.90
2018-05-26T01:35:02.322Z,99.90
2018-05-26T01:37:29.907Z,99.90
2018-05-26T01:39:58.256Z,99.90
2018-05-26T01:42:25.868Z,99.90
2018-05-26T01:44:53.455Z,99.90
2018-05-26T01:47:21.800Z,99.90
2018-05-26T01:49:49.395Z,99.90
2018-05-26T01:52:18.490Z,99.90
2018-05-26T01:54:46.106Z,99.90
2018-05-26T01:57:13.723Z,99.90
2018-05-26T01:59:41.264Z,99.90
2018-05-26T02:02:08.832Z,99.90
2018-05-26T02:04:36.369Z,99.90
2018-05-26T02:07:03.976Z,99.90
2018-05-26T02:09:31.547Z,99.90
2018-05-26T02:11:59.104Z,99.90
2018-05-26T02:14:27.411Z,99.90
2018-05-26T02:16:55.005Z,99.90
2018-05-26T02:19:22.580Z,99.90
2018-05-26T02:21:50.134Z,99.90
2018-05-26T02:24:17.692Z,99.90
2018-05-26T02:26:45.307Z,99.90
2018-05-26T02:29:12.904Z,99.90
2018-05-26T02:31:40.498Z,99.90
2018-05-26T02:34:08.834Z,99.90
2018-05-26T02:36:36.430Z,99.90
2018-05-26T02:39:04.025Z,99.90
2018-05-26T02:41:32.401Z,99.90
2018-05-26T02:43:59.996Z,99.90
2018-05-26T02:46:28.332Z,99.90
2018-05-26T02:48:55.883Z,99.90
2018-05-26T02:51:23.443Z,99.90
2018-05-26T02:53:51.038Z,99.90
2018-05-26T02:56:18.608Z,99.90
2018-05-26T02:58:46.210Z,99.90
2018-05-26T03:01:13.765Z,99.90
2018-05-26T03:03:41.361Z,99.90
2018-05-26T03:08:55.224Z,99.90
2018-05-26T03:11:29.923Z,99.90
2018-05-26T03:14:07.548Z,99.90
2018-05-26T03:19:42.300Z,99.90
2018-05-26T03:22:10.241Z,99.90
2018-05-26T03:24:45.476Z,99.90
2018-05-26T03:27:13.956Z,99.90
2018-05-26T03:29:43.095Z,99.90
2018-05-26T03:32:10.943Z,99.90
2018-05-26T03:34:39.724Z,99.90
2018-05-26T03:37:08.278Z,99.90
2018-05-26T03:39:36.383Z,99.90
2018-05-26T03:42:04.988Z,99.90
2018-05-26T03:44:32.749Z,99.90
2018-05-26T03:47:00.298Z,99.90
2018-05-26T03:49:28.056Z,99.90
2018-05-26T03:51:57.064Z,99.90
2018-05-26T03:54:36.469Z,99.90
2018-05-26T04:00:13.873Z,99.90
2018-05-26T04:02:41.622Z,99.90
2018-05-26T04:05:09.285Z,99.90
2018-05-26T04:07:37.659Z,99.90
2018-05-26T04:10:05.357Z,99.90
2018-05-26T04:12:33.837Z,99.90
2018-05-26T04:15:02.231Z,99.90
2018-05-26T04:17:30.661Z,99.90
2018-05-26T04:19:58.455Z,99.90
2018-05-26T04:22:26.125Z,99.90
2018-05-26T04:24:53.826Z,99.90
2018-05-26T04:27:21.428Z,99.90
2018-05-26T04:29:49.817Z,99.90
2018-05-26T04:32:18.252Z,99.90
2018-05-26T04:34:45.848Z,99.90
2018-05-26T04:37:13.528Z,99.90
2018-05-26T04:39:41.218Z,99.90
2018-05-26T04:42:09.797Z,99.90
2018-05-26T04:44:37.520Z,99.90
2018-05-26T04:47:06.119Z,99.90
2018-05-26T04:49:33.860Z,99.90
2018-05-26T04:52:01.467Z,99.90
2018-05-26T04:54:29.270Z,99.90
2018-05-26T04:56:56.845Z,99.90
2018-05-26T04:59:24.622Z,99.90
2018-05-26T05:01:52.344Z,99.90
2018-05-26T05:04:19.931Z,99.90
2018-05-26T05:06:48.385Z,99.90
2018-05-26T05:09:16.081Z,99.90
2018-05-26T05:11:43.682Z,99.90
2018-05-26T05:14:11.393Z,99.90
2018-05-26T05:16:38.968Z,99.90
2018-05-26T05:19:06.572Z,99.90
2018-05-26T05:21:34.118Z,99.90
2018-05-26T05:24:01.721Z,99.90
2018-05-26T05:26:29.569Z,99.90
2018-05-26T05:28:57.585Z,99.90
2018-05-26T05:31:25.531Z,99.90
2018-05-26T05:33:53.342Z,99.90
2018-05-26T05:36:21.141Z,99.90
2018-05-26T05:38:49.646Z,99.90
2018-05-26T05:41:17.356Z,99.90
2018-05-26T05:43:45.301Z,99.90
2018-05-26T05:46:14.000Z,99.40
2018-05-26T05:48:41.848Z,97.70
2018-05-26T05:51:09.643Z,93.70
2018-05-26T05:53:38.012Z,94.30
2018-05-26T05:56:06.235Z,94.00
2018-05-26T05:58:34.201Z,93.40
2018-05-26T06:01:03.864Z,91.00
2018-05-26T06:03:32.129Z,88.00
2018-05-26T06:05:59.925Z,85.70
2018-05-26T06:08:28.641Z,85.10
2018-05-26T06:10:57.407Z,82.10
2018-05-26T06:13:25.185Z,80.20
2018-05-26T06:15:53.371Z,75.10
2018-05-26T06:18:21.047Z,73.70
2018-05-26T06:20:48.895Z,71.20
2018-05-26T06:23:17.724Z,73.10
2018-05-26T06:25:45.605Z,70.80
2018-05-26T06:28:18.303Z,70.00
2018-05-26T06:30:45.870Z,68.90
2018-05-26T06:33:13.426Z,70.50
2018-05-26T06:35:41.880Z,69.50
2018-05-26T06:38:09.575Z,69.40
2018-05-26T06:40:37.151Z,66.60
2018-05-26T06:43:04.688Z,66.90
2018-05-26T06:45:32.402Z,66.10
2018-05-26T06:48:00.217Z,63.70
2018-05-26T06:50:28.053Z,67.50
2018-05-26T06:52:55.748Z,68.10
2018-05-26T06:55:25.608Z,62.90
2018-05-26T06:57:53.983Z,62.80
2018-05-26T07:00:24.934Z,62.70
2018-05-26T07:02:52.578Z,64.20
2018-05-26T07:05:20.284Z,60.80
2018-05-26T07:07:47.962Z,60.30
2018-05-26T07:10:15.497Z,59.90
2018-05-26T07:12:43.052Z,59.80
2018-05-26T07:15:10.826Z,61.90
2018-05-26T07:17:39.882Z,59.70
2018-05-26T07:20:08.177Z,60.10
2018-05-26T07:22:35.767Z,60.10
2018-05-26T07:25:03.320Z,60.80
2018-05-26T07:27:30.884Z,62.40
2018-05-26T07:29:59.219Z,60.10
2018-05-26T07:32:26.792Z,60.00
2018-05-26T07:34:54.328Z,58.00
2018-05-26T07:37:21.908Z,60.70
2018-05-26T07:39:49.472Z,59.60
2018-05-26T07:42:17.056Z,58.20
2018-05-26T07:44:44.611Z,60.40
2018-05-26T07:47:12.178Z,59.40
2018-05-26T07:49:39.723Z,58.90
2018-05-26T07:52:08.051Z,57.70
2018-05-26T07:54:35.646Z,57.70
2018-05-26T07:57:03.229Z,58.20
2018-05-26T07:59:31.064Z,58.30
2018-05-26T08:01:59.920Z,57.60
2018-05-26T08:04:27.516Z,57.60
2018-05-26T08:06:55.085Z,55.50
2018-05-26T08:09:23.746Z,54.80
2018-05-26T08:11:51.301Z,54.80
2018-05-26T08:14:18.858Z,55.10
2018-05-26T08:16:47.261Z,57.30
2018-05-26T08:19:14.853Z,57.10
2018-05-26T08:21:42.424Z,55.10
2018-05-26T08:24:09.940Z,55.70
2018-05-26T08:26:38.296Z,57.50
2018-05-26T08:29:06.231Z,57.40
2018-05-26T08:31:34.546Z,55.40
2018-05-26T08:34:02.083Z,55.30
2018-05-26T08:36:30.437Z,55.80
2018-05-26T08:38:58.032Z,55.80
2018-05-26T08:41:25.629Z,56.20
2018-05-26T08:43:53.984Z,53.20
2018-05-26T08:46:21.525Z,53.10
2018-05-26T08:48:49.085Z,57.60
2018-05-26T08:51:16.607Z,57.50
2018-05-26T08:53:44.166Z,58.40
2018-05-26T08:56:11.861Z,56.40
2018-05-26T08:58:39.426Z,57.30
2018-05-26T09:01:07.231Z,55.60
2018-05-26T09:03:35.568Z,55.10
2018-05-26T09:06:03.143Z,55.10
2018-05-26T09:08:30.766Z,54.10
2018-05-26T09:10:59.176Z,56.30
2018-05-26T09:13:26.736Z,56.30
2018-05-26T09:15:55.090Z,51.50
2018-05-26T09:18:23.422Z,51.40
2018-05-26T09:20:51.803Z,52.20
2018-05-26T09:23:20.136Z,52.90
2018-05-26T09:25:47.648Z,52.80
2018-05-26T09:28:15.295Z,52.70
2018-05-26T09:30:42.933Z,51.60
2018-05-26T09:33:10.553Z,52.70
2018-05-26T09:35:39.304Z,57.00
2018-05-26T09:38:06.871Z,56.90
2018-05-26T09:40:35.321Z,58.20
2018-05-26T09:43:03.019Z,58.20
2018-05-26T09:45:30.969Z,58.90
2018-05-26T09:47:58.494Z,61.40
2018-05-26T09:50:26.146Z,61.40
2018-05-26T09:52:54.482Z,62.90
2018-05-26T09:55:22.139Z,62.10
2018-05-26T09:57:49.778Z,66.60
2018-05-26T10:00:17.324Z,63.20
2018-05-26T10:02:44.843Z,64.00
2018-05-26T10:05:13.422Z,66.30
2018-05-26T10:07:40.945Z,66.30
2018-05-26T10:10:08.574Z,64.10
2018-05-26T10:12:37.308Z,66.80
2018-05-26T10:15:05.039Z,66.60
2018-05-26T10:17:32.697Z,69.40
2018-05-26T10:20:00.330Z,68.00
2018-05-26T10:22:27.884Z,66.50
2018-05-26T10:24:56.221Z,70.70
2018-05-26T10:27:24.087Z,70.70
2018-05-26T10:29:51.883Z,71.50
2018-05-26T10:32:20.510Z,70.70
2018-05-26T10:34:48.045Z,72.60
2018-05-26T10:37:15.990Z,71.20
2018-05-26T10:39:43.926Z,71.50
2018-05-26T10:42:11.597Z,72.60
2018-05-26T10:44:39.345Z,73.40
2018-05-26T10:47:06.881Z,69.80
2018-05-26T10:49:35.212Z,71.90
2018-05-26T10:52:02.903Z,71.90
2018-05-26T10:54:30.455Z,72.50
2018-05-26T10:56:58.041Z,72.40
2018-05-26T10:59:25.676Z,73.90
2018-05-26T11:01:53.216Z,72.50
2018-05-26T11:04:20.812Z,70.80
2018-05-26T11:06:49.060Z,73.20
2018-05-26T11:09:16.552Z,73.30
2018-05-26T11:11:44.088Z,72.70
2018-05-26T11:14:11.613Z,74.30
2018-05-26T11:16:39.974Z,73.50
2018-05-26T11:19:07.489Z,73.50
2018-05-26T11:21:35.017Z,73.90
2018-05-26T11:24:02.848Z,69.10
2018-05-26T11:26:30.248Z,69.40
2018-05-26T11:28:57.936Z,69.30
2018-05-26T11:31:25.478Z,70.20
2018-05-26T11:33:52.983Z,70.30
2018-05-26T11:36:21.008Z,70.20
2018-05-26T11:38:48.628Z,70.30
2018-05-26T11:41:16.452Z,67.90
2018-05-26T11:43:44.727Z,69.30
2018-05-26T11:46:13.013Z,70.40
2018-05-26T11:48:41.290Z,66.80
2018-05-26T11:51:08.943Z,66.80
2018-05-26T11:53:36.439Z,68.30
2018-05-26T11:56:04.069Z,67.20
2018-05-26T11:58:31.673Z,66.00
2018-05-26T12:00:59.258Z,66.50
2018-05-26T12:03:26.838Z,65.90
2018-05-26T12:05:54.378Z,65.10
2018-05-26T12:08:22.035Z,66.00
2018-05-26T12:10:49.681Z,65.60
2018-05-26T12:13:17.172Z,65.00
2018-05-26T12:15:44.713Z,67.80
2018-05-26T12:18:13.032Z,66.50
2018-05-26T12:20:40.551Z,66.40
2018-05-26T12:23:09.269Z,66.00
2018-05-26T12:25:37.565Z,65.90
2018-05-26T12:28:05.859Z,66.00
2018-05-26T12:30:33.373Z,65.80
2018-05-26T12:33:00.926Z,66.70
2018-05-26T12:35:28.481Z,66.30
2018-05-26T12:37:56.001Z,66.40
2018-05-26T12:40:23.539Z,67.10
2018-05-26T12:42:51.185Z,65.90
2018-05-26T12:45:19.762Z,66.20
2018-05-26T12:47:47.310Z,66.10
2018-05-26T12:50:14.889Z,66.60
2018-05-26T12:52:42.497Z,66.00
2018-05-26T12:55:10.797Z,65.70
2018-05-26T12:57:39.128Z,64.70
2018-05-26T13:00:06.800Z,64.70
2018-05-26T13:02:34.439Z,64.40
2018-05-26T13:05:02.639Z,65.20
2018-05-26T13:07:30.201Z,65.70
2018-05-26T13:09:57.720Z,67.00
2018-05-26T13:12:25.283Z,65.40
2018-05-26T13:14:52.808Z,65.70
2018-05-26T13:17:21.114Z,65.40
2018-05-26T13:19:48.643Z,65.30
2018-05-26T13:22:16.272Z,65.30
2018-05-26T13:24:43.773Z,64.10
2018-05-26T13:27:11.306Z,65.30
2018-05-26T13:29:38.898Z,63.50
2018-05-26T13:32:06.557Z,61.80
2018-05-26T13:34:34.101Z,63.10
2018-05-26T13:37:02.384Z,62.00
2018-05-26T13:39:30.690Z,62.40
2018-05-26T13:41:58.231Z,62.30
2018-05-26T13:44:25.745Z,62.10
2018-05-26T13:46:53.257Z,63.20
2018-05-26T13:49:20.775Z,63.50
2018-05-26T13:51:48.370Z,63.30
2018-05-26T13:54:15.985Z,63.00
2018-05-26T13:56:43.524Z,63.50
2018-05-26T13:59:12.396Z,62.70
2018-05-26T14:01:40.542Z,61.10
2018-05-26T14:04:08.092Z,60.40
2018-05-26T14:06:35.604Z,61.50
2018-05-26T14:09:04.161Z,61.30
2018-05-26T14:11:31.683Z,60.80
2018-05-26T14:13:59.972Z,60.00
2018-05-26T14:16:28.427Z,59.90
2018-05-26T14:18:55.973Z,59.90
2018-05-26T14:21:23.496Z,60.50
2018-05-26T14:23:51.061Z,59.90
2018-05-26T14:26:19.447Z,60.40
2018-05-26T14:28:47.056Z,60.40
2018-05-26T14:31:14.716Z,60.20
2018-05-26T14:33:43.008Z,58.70
2018-05-26T14:36:11.296Z,59.60
2018-05-26T14:38:39.674Z,59.80
2018-05-26T14:41:07.228Z,59.70
2018-05-26T14:43:35.043Z,59.00
2018-05-26T14:46:03.479Z,59.20
2018-05-26T14:48:31.117Z,59.10
2018-05-26T14:50:58.728Z,59.70
2018-05-26T14:53:26.346Z,59.80
2018-05-26T14:55:54.721Z,58.90
2018-05-26T14:58:22.451Z,58.90
2018-05-26T15:00:50.891Z,59.50
2018-05-26T15:03:18.595Z,59.40
2018-05-26T15:05:46.880Z,59.20
2018-05-26T15:08:15.173Z,59.10
2018-05-26T15:10:42.894Z,59.00
2018-05-26T15:13:10.571Z,59.90
2018-05-26T15:15:38.204Z,60.60
2018-05-26T15:18:05.725Z,59.60
2018-05-26T15:20:33.482Z,59.30
2018-05-26T15:23:01.150Z,59.60
2018-05-26T15:25:28.684Z,60.60
2018-05-26T15:27:57.165Z,59.10
2018-05-26T15:30:24.844Z,59.00
2018-05-26T15:32:52.408Z,59.30
2018-05-26T15:35:20.012Z,61.20
2018-05-26T15:37:47.668Z,59.80
2018-05-26T15:40:15.989Z,60.20
2018-05-26T15:42:43.579Z,60.20
2018-05-26T15:45:11.136Z,61.10
2018-05-26T15:47:38.666Z,60.00
2018-05-26T15:50:06.347Z,61.60
2018-05-26T15:52:33.895Z,61.10
2018-05-26T15:55:01.540Z,61.40
2018-05-26T15:57:29.157Z,60.50
2018-05-26T15:59:56.827Z,61.30
2018-05-26T16:02:24.493Z,61.10
2018-05-26T16:04:52.031Z,60.70
2018-05-26T16:07:19.598Z,60.40
2018-05-26T16:09:47.458Z,60.10
2018-05-26T16:12:15.196Z,59.40
2018-05-26T16:14:42.723Z,59.70
2018-05-26T16:17:10.270Z,60.50
2018-05-26T16:19:38.815Z,59.90
2018-05-26T16:22:06.510Z,59.90
2018-05-26T16:24:34.886Z,60.80
2018-05-26T16:27:15.384Z,60.80
2018-05-26T16:29:43.164Z,62.40
2018-05-26T16:32:11.072Z,59.90
2018-05-26T16:34:38.694Z,60.80
2018-05-26T16:37:07.142Z,61.20
2018-05-26T16:39:34.816Z,62.10
2018-05-26T16:42:02.534Z,62.40
2018-05-26T16:44:30.470Z,63.10
2018-05-26T16:46:58.148Z,62.40
2018-05-26T16:49:25.860Z,61.70
2018-05-26T16:51:53.472Z,61.30
2018-05-26T16:54:21.234Z,61.60
2018-05-26T16:56:48.849Z,62.30
2018-05-26T16:59:16.382Z,61.60
2018-05-26T17:01:44.826Z,61.80
2018-05-26T17:04:12.692Z,61.80
2018-05-26T17:06:40.290Z,61.30
2018-05-26T17:09:07.959Z,61.40
2018-05-26T17:11:35.641Z,62.60
2018-05-26T17:14:03.288Z,61.00
2018-05-26T17:16:30.895Z,61.40
2018-05-26T17:18:58.428Z,61.80
2018-05-26T17:21:37.066Z,61.00
2018-05-26T17:24:04.720Z,60.90
2018-05-26T17:26:33.021Z,62.90
2018-05-26T17:29:01.512Z,63.30
2018-05-26T17:31:29.812Z,63.40
2018-05-26T17:33:57.381Z,63.50
2018-05-26T17:36:25.757Z,61.70
2018-05-26T17:38:54.272Z,61.40
2018-05-26T17:41:21.987Z,61.30
2018-05-26T17:43:49.812Z,62.20
2018-05-26T17:46:18.140Z,61.60
2018-05-26T17:48:45.860Z,61.60
2018-05-26T17:51:13.413Z,62.00
2018-05-26T17:53:41.087Z,62.00
2018-05-26T17:56:08.918Z,62.20
2018-05-26T17:58:36.697Z,62.80
2018-05-26T18:01:04.424Z,64.50
2018-05-26T18:03:32.327Z,62.20
2018-05-26T18:06:00.301Z,62.50
2018-05-26T18:08:28.162Z,63.00
2018-05-26T18:10:55.788Z,64.40
2018-05-26T18:13:23.775Z,65.60
2018-05-26T18:15:51.427Z,66.00
2018-05-26T18:18:20.179Z,66.80
2018-05-26T18:20:47.918Z,66.80
2018-05-26T18:23:15.675Z,67.20
2018-05-26T18:25:43.579Z,67.60
2018-05-26T18:28:11.308Z,66.00
2018-05-26T18:30:39.336Z,67.00
2018-05-26T18:33:06.980Z,69.10
2018-05-26T18:35:34.637Z,70.40
2018-05-26T18:38:02.167Z,68.90
2018-05-26T18:40:29.903Z,71.40
2018-05-26T18:42:57.426Z,72.80
2018-05-26T18:45:25.079Z,73.70
2018-05-26T18:47:52.607Z,73.90
2018-05-26T18:50:20.264Z,75.10
2018-05-26T18:52:47.966Z,75.40
2018-05-26T18:55:15.502Z,75.50
2018-05-26T18:57:43.330Z,76.50
2018-05-26T19:00:11.888Z,78.30
2018-05-26T19:02:39.519Z,78.30
2018-05-26T19:05:07.091Z,79.20
2018-05-26T19:07:34.713Z,80.20
2018-05-26T19:10:02.309Z,80.00
2018-05-26T19:12:30.684Z,80.20
2018-05-26T19:14:58.259Z,80.80
2018-05-26T19:17:25.916Z,82.70
2018-05-26T19:19:53.590Z,82.90
2018-05-26T19:22:21.200Z,82.80
2018-05-26T19:24:49.508Z,83.10
2018-05-26T19:27:18.057Z,83.20
2018-05-26T19:29:45.738Z,83.20
2018-05-26T19:32:14.095Z,85.50
2018-05-26T19:34:41.657Z,85.50
2018-05-26T19:37:09.203Z,85.70
2018-05-26T19:39:37.546Z,87.00
2018-05-26T19:42:05.186Z,86.90
2018-05-26T19:44:32.932Z,87.00
2018-05-26T19:47:00.841Z,87.80
2018-05-26T19:49:28.497Z,88.80
2018-05-26T19:51:56.063Z,88.80
2018-05-26T19:54:23.654Z,89.40
2018-05-26T19:56:51.964Z,90.20
2018-05-26T19:59:19.524Z,90.20
2018-05-26T20:01:47.036Z,90.40
2018-05-26T20:04:14.579Z,90.70
2018-05-26T20:06:42.127Z,90.90
2018-05-26T20:09:09.689Z,91.20
2018-05-26T20:11:38.018Z,92.30
2018-05-26T20:14:05.540Z,92.30
2018-05-26T20:16:33.116Z,92.70
2018-05-26T20:19:00.625Z,93.50
2018-05-26T20:21:28.182Z,93.60
2018-05-26T20:23:56.468Z,95.10
2018-05-26T20:26:24.912Z,95.70
2018-05-26T20:28:52.450Z,95.60
2018-05-26T20:31:19.997Z,96.30
2018-05-26T20:33:48.323Z,97.10
2018-05-26T20:36:15.864Z,97.00
2018-05-26T20:38:44.142Z,97.40
2018-05-26T20:41:12.508Z,97.70
2018-05-26T20:43:40.048Z,97.70
2018-05-26T20:46:07.610Z,98.40
2018-05-26T20:48:35.156Z,98.80
2018-05-26T20:51:03.448Z,99.80
2018-05-26T20:53:31.767Z,99.60
2018-05-26T20:55:59.328Z,99.60
2018-05-26T20:58:26.877Z,99.90
2018-05-26T21:00:55.192Z,99.90
2018-05-26T21:03:22.719Z,99.90
2018-05-26T21:05:50.284Z,99.90
2018-05-26T21:08:18.568Z,99.90
2018-05-26T21:10:46.116Z,99.90
2018-05-26T21:13:13.632Z,99.90
2018-05-26T21:15:41.149Z,99.90
2018-05-26T21:18:08.711Z,99.90
2018-05-26T21:20:36.289Z,99.90
2018-05-26T21:23:03.860Z,99.90
2018-05-26T21:25:31.392Z,99.90
2018-05-26T21:27:58.905Z,99.90
2018-05-26T21:30:26.480Z,99.90
2018-05-26T21:32:54.097Z,99.90
2018-05-26T21:35:21.633Z,99.90
2018-05-26T21:37:49.164Z,99.90
2018-05-26T21:40:17.448Z,99.90
2018-05-26T21:42:45.790Z,99.90
2018-05-26T21:45:13.334Z,99.90
2018-05-26T21:47:40.872Z,99.90
2018-05-26T21:50:08.396Z,99.90
2018-05-26T21:52:35.994Z,99.90
2018-05-26T21:55:03.491Z,99.90
2018-05-26T21:57:31.061Z,99.90
2018-05-26T21:59:58.577Z,99.90
2018-05-26T22:02:26.106Z,99.90
2018-05-26T22:04:53.641Z,99.90
2018-05-26T22:07:21.168Z,99.90
2018-05-26T22:09:49.445Z,99.90
2018-05-26T22:12:17.729Z,99.90
2018-05-26T22:14:46.065Z,99.90
2018-05-26T22:17:13.600Z,99.90
2018-05-26T22:19:41.929Z,99.90
2018-05-26T22:22:09.701Z,99.90
2018-05-26T22:24:37.226Z,99.90
2018-05-26T22:27:05.542Z,99.90
2018-05-26T22:29:33.086Z,99.90
2018-05-26T22:32:00.638Z,99.90
2018-05-26T22:34:28.159Z,99.90
2018-05-26T22:36:55.724Z,99.90
2018-05-26T22:39:24.017Z,99.90
2018-05-26T22:41:52.338Z,99.90
2018-05-26T22:44:19.856Z,99.90
2018-05-26T22:46:47.428Z,99.90
2018-05-26T22:49:15.783Z,99.90
2018-05-26T22:51:43.332Z,99.90
2018-05-26T22:54:11.154Z,99.90
2018-05-26T22:56:38.730Z,99.90
2018-05-26T22:59:06.294Z,99.90
2018-05-26T23:01:33.835Z,99.90
2018-05-26T23:04:01.377Z,99.90
2018-05-26T23:06:29.669Z,99.90
2018-05-26T23:08:57.989Z,99.90
2018-05-26T23:11:25.522Z,99.90
2018-05-26T23:13:53.827Z,99.90
2018-05-26T23:16:21.375Z,99.90
2018-05-26T23:18:49.692Z,99.90
2018-05-26T23:21:17.216Z,99.90
2018-05-26T23:23:44.765Z,99.90
2018-05-26T23:26:12.314Z,99.90
2018-05-26T23:28:39.881Z,99.90
2018-05-26T23:31:07.429Z,99.90
2018-05-26T23:33:35.765Z,99.90
2018-05-26T23:36:03.281Z,99.90
2018-05-26T23:38:30.835Z,99.90
2018-05-26T23:40:58.396Z,99.90
2018-05-26T23:43:25.927Z,99.90
2018-05-26T23:45:53.462Z,99.90
2018-05-26T23:48:21.058Z,99.90
2018-05-26T23:50:49.334Z,99.90
2018-05-26T23:53:17.676Z,99.90
2018-05-26T23:55:45.281Z,99.90
2018-05-26T23:58:12.857Z,99.90
